Time;durP1;ratioP1;P1;durP2;ratioP2;P2;SDS_P1;SDS_P2;PMS_P1;PMS_P2;Temp;Humidity;BMP_temperature;BMP_pressure;BME280_temperature;BME280_humidity;BME280_pressure;Samples;Min_cycle;Max_cycle;Signal;HPM_P1;HPM_P2
2023/03/27 00:01:06;;;;;;;28.05;18.38;;;;;;;6.55;77.03;64423.69;5091887;28;20040;-75
2023/03/27 00:03:32;;;;;;;26.88;19.08;;;;;;;6.47;77.67;64414.75;5091990;28;20575;-74
2023/03/27 00:06:07;;;;;;;27.92;17.85;;;;;;;6.44;77.59;64410.81;5113340;28;20498;-75
2023/03/27 00:08:35;;;;;;;26.20;17.88;;;;;;;6.44;77.79;64411.38;5079015;28;20413;-75
2023/03/27 00:11:01;;;;;;;24.38;18.08;;;;;;;6.46;77.47;64413.59;5078893;28;20394;-76
2023/03/27 00:13:28;;;;;;;26.13;17.95;;;;;;;6.49;77.32;64416.41;5095699;28;20064;-75
2023/03/27 00:15:55;;;;;;;28.63;17.58;;;;;;;6.47;77.50;64414.75;5062571;28;20040;-75
2023/03/27 00:18:23;;;;;;;27.48;17.58;;;;;;;6.50;77.42;64417.53;5095712;28;20060;-74
2023/03/27 00:20:48;;;;;;;26.52;17.75;;;;;;;6.47;77.47;64414.75;5096987;28;20040;-73
2023/03/27 00:23:15;;;;;;;25.70;17.90;;;;;;;6.51;77.14;64419.22;5096764;28;20032;-74
2023/03/27 00:25:41;;;;;;;28.10;17.85;;;;;;;6.51;77.15;64419.22;5096693;28;20051;-74
2023/03/27 00:28:07;;;;;;;25.95;17.60;;;;;;;6.50;77.23;64418.09;5096208;28;20043;-74
2023/03/27 00:30:34;;;;;;;26.95;18.50;;;;;;;6.51;77.06;64419.22;5095406;28;20510;-74
2023/03/27 00:33:00;;;;;;;26.05;16.92;;;;;;;6.48;76.91;64415.84;5096584;28;20090;-74
2023/03/27 00:35:28;;;;;;;26.05;17.73;;;;;;;6.44;77.08;64411.38;5096379;28;20048;-75
2023/03/27 00:37:54;;;;;;;23.63;17.30;;;;;;;6.48;76.98;64415.28;5095367;28;20129;-74
2023/03/27 00:40:21;;;;;;;23.48;16.90;;;;;;;6.40;77.13;64406.34;5096274;28;20047;-74
2023/03/27 00:42:50;;;;;;;30.48;17.67;;;;;;;6.41;76.89;64407.44;5077867;28;20051;-74
2023/03/27 00:45:20;;;;;;;33.20;17.85;;;;;;;6.42;77.03;64409.13;5078040;28;20040;-75
2023/03/27 00:47:57;;;;;;;23.70;17.55;;;;;;;6.37;77.30;64403.53;5095868;28;20089;-75
2023/03/27 00:50:26;;;;;;;28.48;18.33;;;;;;;6.35;77.06;64401.28;5095727;28;20123;-74
2023/03/27 00:52:59;;;;;;;29.65;18.48;;;;;;;6.34;76.82;64400.16;5077617;28;20046;-75
2023/03/27 00:55:30;;;;;;;30.55;17.58;;;;;;;6.35;77.15;64401.28;5111629;28;20054;-75
2023/03/27 00:58:02;;;;;;;26.48;18.35;;;;;;;6.28;77.03;64393.44;5077730;28;20047;-75
2023/03/27 01:00:30;;;;;;;29.00;18.30;;;;;;;6.35;76.99;64400.72;5111930;28;20130;-75
2023/03/27 01:02:56;;;;;;;27.35;18.00;;;;;;;6.33;76.81;64399.03;5077558;28;20511;-74
2023/03/27 01:05:22;;;;;;;26.63;18.27;;;;;;;6.32;77.00;64397.94;5094243;28;20150;-74
2023/03/27 01:07:50;;;;;;;24.63;17.88;;;;;;;6.30;77.23;64395.69;5094275;28;20043;-74
2023/03/27 01:10:16;;;;;;;26.65;17.08;;;;;;;6.33;77.05;64399.03;5094088;28;20051;-76
2023/03/27 01:13:03;;;;;;;28.70;17.90;;;;;;;6.35;77.58;64401.28;5060709;28;20040;-75
2023/03/27 01:15:49;;;;;;;28.13;18.38;;;;;;;6.36;77.09;64402.41;5076083;28;20052;-75
2023/03/27 01:18:30;;;;;;;21.85;16.92;;;;;;;6.36;77.12;64402.41;5060506;28;20057;-75
2023/03/27 01:21:21;;;;;;;23.65;16.38;;;;;;;6.37;77.11;64403.53;5060695;28;20142;-75
2023/03/27 01:24:21;;;;;;;23.02;16.25;;;;;;;6.37;77.54;64402.97;5077654;28;20086;-75
2023/03/27 01:27:36;;;;;;;29.27;17.10;;;;;;;6.39;77.37;64405.75;5093911;28;20506;-77
2023/03/27 01:30:14;;;;;;;25.00;16.38;;;;;;;6.36;77.57;64402.41;5068033;28;20064;-76
2023/03/27 01:33:31;;;;;;;26.38;16.13;;;;;;;6.43;77.00;64410.25;5111118;28;20079;-75
2023/03/27 01:36:15;;;;;;;26.98;16.33;;;;;;;6.42;77.14;64409.13;5062854;28;20052;-73
2023/03/27 01:39:04;;;;;;;24.77;16.50;;;;;;;6.45;77.16;64412.50;5076803;28;20105;-75
2023/03/27 01:41:41;;;;;;;21.75;15.68;;;;;;;6.44;77.18;64411.38;5066209;28;20375;-74
2023/03/27 01:44:26;;;;;;;20.92;15.90;;;;;;;6.51;76.92;64418.66;5060153;28;20073;-75
2023/03/27 01:47:03;;;;;;;25.50;16.63;;;;;;;6.47;76.76;64414.16;5076761;28;20564;-76
2023/03/27 01:49:54;;;;;;;32.03;16.63;;;;;;;6.53;76.84;64420.91;5093707;28;20043;-74
2023/03/27 01:52:27;;;;;;;25.00;16.00;;;;;;;6.53;76.76;64420.91;5076449;28;20513;-74
2023/03/27 01:55:02;;;;;;;21.20;15.60;;;;;;;6.55;76.74;64423.69;5094318;28;20052;-74
2023/03/27 01:57:37;;;;;;;21.05;16.25;;;;;;;6.63;76.62;64431.56;5076536;28;20502;-74
2023/03/27 02:00:16;;;;;;;23.83;16.42;;;;;;;6.63;76.36;64431.56;5093225;28;20573;-78
2023/03/27 02:03:12;;;;;;;27.27;19.27;;;;;;;6.64;76.46;64432.66;5093202;28;20040;-77
2023/03/27 02:05:45;;;;;;;25.88;16.92;;;;;;;6.66;76.44;64434.91;5093093;28;20406;-76
2023/03/27 02:08:26;;;;;;;27.48;17.58;;;;;;;6.71;76.50;64440.50;5076079;28;20036;-77
2023/03/27 02:10:58;;;;;;;27.17;16.20;;;;;;;6.67;75.93;64436.59;5109677;28;20126;-75
2023/03/27 02:13:49;;;;;;;26.30;17.02;;;;;;;6.72;75.50;64442.19;5089166;28;20093;-75
2023/03/27 02:16:24;;;;;;;25.73;17.83;;;;;;;6.73;75.43;64442.75;5093825;28;20047;-75
2023/03/27 02:19:01;;;;;;;24.27;16.30;;;;;;;6.72;75.75;64441.63;5093008;28;20498;-76
2023/03/27 02:21:30;;;;;;;26.77;16.17;;;;;;;6.73;75.56;64442.75;5075988;28;20075;-76
2023/03/27 02:24:00;;;;;;;25.08;16.50;;;;;;;6.80;75.41;64451.16;5092578;28;20083;-76
2023/03/27 02:26:31;;;;;;;27.55;17.30;;;;;;;6.88;75.29;64459.56;5075138;28;20483;-76
2023/03/27 02:28:56;;;;;;;23.02;16.40;;;;;;;6.91;75.18;64462.38;5075472;28;20423;-75
2023/03/27 02:31:41;;;;;;;23.30;15.63;;;;;;;6.95;75.17;64467.41;5109595;28;20036;-75
2023/03/27 02:34:15;;;;;;;27.60;15.82;;;;;;;6.97;75.30;64469.66;5074974;28;20062;-76
2023/03/27 02:36:48;;;;;;;22.45;17.63;;;;;;;7.09;75.00;64482.00;5110008;28;20048;-76
2023/03/27 02:39:37;;;;;;;21.95;15.73;;;;;;;7.19;74.93;64493.22;5089061;28;20143;-76
2023/03/27 02:42:20;;;;;;;22.17;14.80;;;;;;;7.21;74.29;64495.47;5074903;28;20066;-75
2023/03/27 02:45:09;;;;;;;26.05;15.40;;;;;;;7.25;74.63;64499.94;5074640;28;20035;-75
2023/03/27 02:47:41;;;;;;;20.85;14.32;;;;;;;7.29;74.25;64504.44;5108762;28;20046;-76
2023/03/27 02:50:19;;;;;;;22.67;14.57;;;;;;;7.37;73.91;64513.41;5092870;28;20044;-75
2023/03/27 02:52:53;;;;;;;23.15;13.55;;;;;;;7.47;73.69;64524.06;5075937;28;20411;-75
2023/03/27 02:55:32;;;;;;;20.42;15.05;;;;;;;7.40;72.99;64516.78;5092721;28;20127;-76
2023/03/27 02:58:05;;;;;;;23.60;14.30;;;;;;;7.44;73.14;64521.25;5109488;28;20376;-75
2023/03/27 03:00:48;;;;;;;23.23;14.25;;;;;;;7.57;73.07;64534.72;5075350;28;20044;-76
2023/03/27 03:03:41;;;;;;;16.83;12.85;;;;;;;7.67;72.70;64545.94;5092188;28;20054;-77
2023/03/27 03:06:28;;;;;;;23.27;12.55;;;;;;;7.85;72.72;64566.16;5075214;28;20073;-76
2023/03/27 03:09:05;;;;;;;18.10;12.45;;;;;;;7.79;71.63;64559.44;5069103;28;20059;-78
2023/03/27 03:11:33;;;;;;;16.05;12.93;;;;;;;7.92;71.81;64573.44;5077486;28;20482;-76
2023/03/27 03:13:59;;;;;;;22.20;12.93;;;;;;;7.77;71.40;64557.72;5055248;28;20044;-75
2023/03/27 03:16:26;;;;;;;20.48;12.10;;;;;;;7.93;71.44;64575.13;5073203;28;20051;-77
2023/03/27 03:18:52;;;;;;;18.70;12.70;;;;;;;7.96;70.58;64578.50;5038360;28;20059;-77
2023/03/27 03:21:18;;;;;;;24.35;13.10;;;;;;;7.98;70.99;64580.19;5072179;28;20047;-77
2023/03/27 03:23:45;;;;;;;18.80;12.10;;;;;;;8.15;70.69;64599.25;5071645;28;20052;-76
2023/03/27 03:26:12;;;;;;;19.63;12.73;;;;;;;8.21;70.09;64605.44;5055200;28;20040;-76
2023/03/27 03:28:46;;;;;;;26.23;13.23;;;;;;;8.25;69.78;64609.94;5071717;28;20064;-75
2023/03/27 03:31:13;;;;;;;21.02;13.13;;;;;;;8.33;70.11;64618.91;5071765;28;20043;-80
2023/03/27 03:33:40;;;;;;;22.98;12.68;;;;;;;8.51;70.50;64639.16;5072711;28;20046;-90
2023/03/27 03:36:07;;;;;;;28.92;13.82;;;;;;;8.60;68.93;64648.13;5072004;28;20051;-82
2023/03/27 03:38:36;;;;;;;19.48;12.95;;;;;;;8.54;67.86;64641.97;5071365;28;20051;-76
2023/03/27 03:41:03;;;;;;;21.92;12.70;;;;;;;8.48;67.83;64635.78;5071436;28;20063;-78
2023/03/27 03:43:30;;;;;;;18.88;12.57;;;;;;;8.41;67.60;64627.91;5038398;28;20051;-75
2023/03/27 03:45:57;;;;;;;15.95;12.23;;;;;;;8.43;68.16;64630.19;5071372;28;20054;-76
2023/03/27 03:48:25;;;;;;;20.98;12.38;;;;;;;8.59;67.91;64647.56;5071770;28;20456;-79
2023/03/27 03:50:51;;;;;;;18.48;12.60;;;;;;;8.68;68.09;64657.69;5055125;28;20048;-79
2023/03/27 03:53:19;;;;;;;17.83;12.57;;;;;;;8.79;67.32;64669.47;5038541;28;20044;-76
2023/03/27 03:55:48;;;;;;;23.67;12.82;;;;;;;8.80;66.33;64670.03;5071629;28;20044;-77
2023/03/27 03:58:14;;;;;;;29.90;13.18;;;;;;;8.70;66.24;64659.38;5083040;28;20595;-79
2023/03/27 04:00:40;;;;;;;20.15;12.75;;;;;;;8.81;66.57;64671.72;5081640;28;20040;-79
2023/03/27 04:03:15;;;;;;;14.38;11.70;;;;;;;8.97;66.24;64689.13;5090029;28;20048;-78
2023/03/27 04:05:41;;;;;;;18.48;11.88;;;;;;;9.26;65.51;64720.63;5073348;28;20040;-77
2023/03/27 04:08:07;;;;;;;17.88;12.45;;;;;;;9.52;65.40;64749.28;5090334;28;20495;-77
2023/03/27 04:10:51;;;;;;;21.58;12.77;;;;;;;9.82;64.33;64782.44;5090333;28;20040;-79
2023/03/27 04:13:36;;;;;;;23.55;12.15;;;;;;;9.84;63.46;64785.25;5090601;28;20048;-80
2023/03/27 04:16:14;;;;;;;21.67;12.45;;;;;;;10.15;63.63;64818.97;5056165;28;20134;-82
2023/03/27 04:18:44;;;;;;;18.45;11.05;;;;;;;10.06;61.60;64809.44;5073624;28;20413;-78
2023/03/27 04:21:16;;;;;;;18.23;10.68;;;;;;;10.10;61.93;64813.38;5107144;28;20131;-79
2023/03/27 04:23:44;;;;;;;15.45;10.60;;;;;;;10.17;61.70;64821.25;5073767;28;20056;-77
2023/03/27 04:26:11;;;;;;;14.43;10.50;;;;;;;10.28;61.57;64833.63;5069730;28;20061;-78
2023/03/27 04:28:58;;;;;;;17.48;10.30;;;;;;;10.41;61.69;64847.69;5086409;28;20138;-76
2023/03/27 04:31:45;;;;;;;16.98;9.15;;;;;;;10.34;60.56;64840.41;5091132;28;20055;-78
2023/03/27 04:34:29;;;;;;;12.75;9.02;;;;;;;10.24;60.07;64828.56;5091293;28;20499;-79
2023/03/27 04:37:13;;;;;;;11.95;9.68;;;;;;;10.21;60.33;64826.31;5090377;28;20040;-78
2023/03/27 04:39:47;;;;;;;15.20;9.90;;;;;;;10.30;60.62;64835.88;5091426;28;20522;-76
2023/03/27 04:42:14;;;;;;;16.40;9.93;;;;;;;10.58;60.39;64866.28;5074580;28;20055;-76
2023/03/27 04:44:40;;;;;;;19.67;13.75;;;;;;;10.85;60.08;64896.09;5074242;28;20384;-77
2023/03/27 04:47:07;;;;;;;17.85;9.65;;;;;;;10.89;58.99;64901.16;5108147;28;20098;-77
2023/03/27 04:49:39;;;;;;;16.75;9.77;;;;;;;10.69;58.55;64878.66;5108307;28;20063;-78
2023/03/27 04:52:17;;;;;;;15.40;9.88;;;;;;;10.94;59.71;64906.81;5078186;28;20040;-78
2023/03/27 04:54:44;;;;;;;18.35;10.13;;;;;;;11.31;59.25;64947.31;5094697;28;20097;-77
2023/03/27 04:57:10;;;;;;;18.52;10.40;;;;;;;11.66;58.20;64986.19;5094816;28;20052;-80
2023/03/27 04:59:36;;;;;;;20.58;10.68;;;;;;;11.93;57.39;65014.94;5076621;28;20044;-77
2023/03/27 05:02:21;;;;;;;14.23;10.00;;;;;;;11.94;57.14;65016.06;5093354;28;20067;-78
2023/03/27 05:05:00;;;;;;;12.27;10.07;;;;;;;11.96;56.91;65018.31;5092835;28;20043;-76
2023/03/27 05:07:30;;;;;;;14.30;10.45;;;;;;;12.02;56.43;65025.63;5094925;28;20097;-78
2023/03/27 05:09:56;;;;;;;22.08;11.15;;;;;;;12.27;56.94;65053.25;5110898;28;20036;-78
2023/03/27 05:12:26;;;;;;;15.35;9.43;;;;;;;12.43;56.16;65070.16;5093957;28;20051;-79
2023/03/27 05:14:58;;;;;;;16.88;10.55;;;;;;;12.45;55.48;65072.41;5094344;28;20048;-78
2023/03/27 05:17:42;;;;;;;18.05;9.75;;;;;;;12.49;54.92;65077.50;5094541;28;20596;-77
2023/03/27 05:20:13;;;;;;;16.45;9.40;;;;;;;12.75;55.47;65105.66;5077730;28;20079;-77
2023/03/27 05:22:41;;;;;;;16.17;8.73;;;;;;;12.81;53.54;65112.44;5077841;28;20040;-77
2023/03/27 05:25:27;;;;;;;13.38;8.60;;;;;;;12.63;52.82;65092.69;5095959;28;20048;-77
2023/03/27 05:27:54;;;;;;;16.67;8.67;;;;;;;12.65;52.73;65094.97;5095252;28;20048;-78
2023/03/27 05:30:23;;;;;;;13.00;7.80;;;;;;;13.07;53.47;65141.19;5078496;28;20127;-78
2023/03/27 05:32:57;;;;;;;10.30;7.32;;;;;;;13.29;51.75;65165.47;5094731;28;20036;-77
2023/03/27 05:35:27;;;;;;;13.55;7.32;;;;;;;13.52;51.92;65190.88;5111443;28;20471;-77
2023/03/27 05:37:55;;;;;;;13.57;7.53;;;;;;;13.75;50.49;65216.81;5111300;28;20052;-77
2023/03/27 05:40:34;;;;;;;8.82;6.18;;;;;;;13.98;49.97;65241.66;5077594;28;20040;-77
2023/03/27 05:43:02;;;;;;;13.88;6.57;;;;;;;14.26;49.43;65272.72;5077150;28;20070;-77
2023/03/27 05:45:31;;;;;;;15.90;6.35;;;;;;;14.37;48.50;65285.13;5094109;28;20048;-77
2023/03/27 05:47:59;;;;;;;11.15;6.07;;;;;;;14.25;46.14;65272.13;5094013;28;20044;-77
2023/03/27 05:50:32;;;;;;;12.57;5.78;;;;;;;14.15;45.95;65260.84;5076703;28;20052;-77
2023/03/27 05:53:03;;;;;;;11.13;5.15;;;;;;;13.83;46.67;65225.84;5093986;28;20434;-78
2023/03/27 05:55:33;;;;;;;10.30;4.88;;;;;;;13.98;47.34;65242.22;5093762;28;20126;-78
2023/03/27 05:58:05;;;;;;;8.43;4.40;;;;;;;14.42;45.77;65290.22;5093824;28;20051;-77
2023/03/27 06:00:33;;;;;;;9.48;4.32;;;;;;;14.64;45.41;65315.09;5093697;28;20426;-77
2023/03/27 06:03:01;;;;;;;13.07;4.47;;;;;;;14.90;45.62;65343.91;5092886;28;20044;-78
2023/03/27 06:06:10;;;;;;;6.68;4.70;;;;;;;15.01;44.10;65356.31;5084892;28;20468;-79
2023/03/27 06:08:37;;;;;;;8.10;4.20;;;;;;;15.25;44.10;65382.88;5110252;28;20499;-77
2023/03/27 06:11:08;;;;;;;14.98;4.13;;;;;;;15.24;42.77;65381.75;5072897;28;20048;-78
2023/03/27 06:13:40;;;;;;;12.15;5.15;;;;;;;15.44;42.68;65403.78;5060336;28;20577;-77
2023/03/27 06:16:09;;;;;;;10.07;3.72;;;;;;;15.43;41.33;65402.09;5059139;28;20075;-77
2023/03/27 06:19:22;;;;;;;6.78;4.22;;;;;;;15.82;41.37;65445.09;5031730;28;20192;-76
2023/03/27 06:21:50;;;;;;;13.70;4.20;;;;;;;16.16;40.47;65483.53;5073241;28;20059;-77
2023/03/27 06:24:16;;;;;;;5.13;3.70;;;;;;;16.14;39.38;65480.72;5072581;28;20044;-79
2023/03/27 06:26:42;;;;;;;8.82;3.95;;;;;;;16.12;39.15;65478.44;5078424;28;20040;-78
2023/03/27 06:29:09;;;;;;;7.63;4.18;;;;;;;16.41;39.95;65510.69;5093060;28;20058;-79
2023/03/27 06:31:42;;;;;;;9.43;3.92;;;;;;;16.48;39.09;65518.63;5093171;28;20051;-77
2023/03/27 06:34:17;;;;;;;4.57;3.33;;;;;;;16.47;37.66;65517.47;5061006;28;20040;-77
2023/03/27 06:36:51;;;;;;;17.40;3.35;;;;;;;16.37;37.63;65506.72;5093458;28;20048;-77
2023/03/27 06:39:20;;;;;;;7.90;3.20;;;;;;;16.48;36.82;65519.19;5076552;28;20048;-83
2023/03/27 06:41:48;;;;;;;12.75;3.35;;;;;;;16.30;35.02;65498.25;5074834;28;20087;-78
2023/03/27 06:44:32;;;;;;;10.40;4.05;;;;;;;16.20;35.93;65488.06;5077249;28;20521;-78
2023/03/27 06:47:17;;;;;;;18.77;3.72;;;;;;;16.45;36.39;65515.22;5059018;28;20043;-81
2023/03/27 06:50:16;;;;;;;10.20;3.55;;;;;;;16.58;36.29;65529.91;5061754;28;20439;-77
2023/03/27 06:52:42;;;;;;;9.50;3.05;;;;;;;16.71;35.86;65544.06;5072955;28;20048;-80
2023/03/27 06:55:32;;;;;;;7.07;3.17;;;;;;;16.93;35.38;65568.44;5071670;28;20041;-76
2023/03/27 06:58:00;;;;;;;7.67;3.20;;;;;;;16.97;34.99;65570.28;5055614;28;20051;-77
2023/03/27 07:00:29;;;;;;;9.73;3.10;;;;;;;17.08;35.59;65585.41;5089065;28;20036;-77
2023/03/27 07:03:14;;;;;;;10.63;2.90;;;;;;;17.33;33.94;65612.56;5084829;28;20075;-80
2023/03/27 07:05:59;;;;;;;13.75;3.00;;;;;;;17.39;34.13;65619.38;5087083;28;20079;-80
2023/03/27 07:08:30;;;;;;;5.40;2.70;;;;;;;17.35;33.77;65615.41;5092121;28;20129;-79
2023/03/27 07:10:59;;;;;;;5.50;2.25;;;;;;;17.63;33.72;65646.56;5090058;28;20098;-77
2023/03/27 07:13:26;;;;;;;9.40;2.70;;;;;;;17.70;33.08;65651.81;5063485;28;20064;-82
2023/03/27 07:15:53;;;;;;;10.68;2.90;;;;;;;17.60;32.86;65643.16;5049664;28;20142;-82
2023/03/27 07:18:21;;;;;;;7.90;3.42;;;;;;;17.55;32.33;65637.50;5054464;28;20059;-84
2023/03/27 07:20:49;;;;;;;10.48;3.42;;;;;;;17.73;32.55;65657.88;5060320;28;20111;-79
2023/03/27 07:23:19;;;;;;;8.13;2.92;;;;;;;18.03;33.00;65690.75;5033647;28;20045;-78
2023/03/27 07:26:02;;;;;;;12.10;3.10;;;;;;;17.95;32.67;65681.69;5017715;28;20052;-77
2023/03/27 07:28:49;;;;;;;8.10;2.72;;;;;;;18.12;32.80;65700.94;5050313;28;20135;-80
2023/03/27 07:31:15;;;;;;;8.98;2.95;;;;;;;18.31;33.01;65721.91;5033713;28;20052;-76
2023/03/27 07:33:41;;;;;;;9.57;2.78;;;;;;;18.43;32.14;65734.97;5016691;28;20079;-78
2023/03/27 07:36:08;;;;;;;9.23;2.75;;;;;;;18.37;32.12;65728.16;5035740;28;20053;-78
2023/03/27 07:38:43;;;;;;;4.80;2.60;;;;;;;18.61;31.97;65754.78;5028189;28;20101;-79
2023/03/27 07:41:21;;;;;;;9.93;2.70;;;;;;;18.53;31.27;65745.72;5053608;28;20049;-77
2023/03/27 07:43:56;;;;;;;12.35;3.00;;;;;;;18.59;31.46;65753.09;5070728;28;20052;-77
2023/03/27 07:46:22;;;;;;;9.30;3.05;;;;;;;18.82;30.94;65778.63;5053330;28;20056;-80
2023/03/27 07:48:49;;;;;;;10.40;2.50;;;;;;;18.68;30.68;65762.72;5053830;28;20135;-76
2023/03/27 07:51:18;;;;;;;;;;;;;;;18.35;30.45;65726.44;5063088;28;20113;-78
2023/03/27 07:53:44;;;;;;;10.68;2.60;;;;;;;18.28;30.92;65717.94;5090844;28;19981;-77
2023/03/27 07:56:16;;;;;;;14.93;2.75;;;;;;;18.24;31.25;65714.00;5074471;28;20519;-78
2023/03/27 07:58:46;;;;;;;12.10;2.85;;;;;;;18.39;31.62;65731.00;5075563;28;20039;-78
2023/03/27 08:01:17;;;;;;;6.95;2.70;;;;;;;18.53;31.40;65745.72;5090930;28;20055;-78
2023/03/27 08:03:47;;;;;;;17.30;2.70;;;;;;;18.73;30.96;65767.84;5090633;28;20131;-80
2023/03/27 08:06:13;;;;;;;19.40;2.90;;;;;;;18.73;30.36;65767.84;5074275;28;20040;-78
2023/03/27 08:08:39;;;;;;;11.68;2.60;;;;;;;18.68;29.97;65762.72;5074817;28;20040;-78
2023/03/27 08:11:06;;;;;;;9.98;2.13;;;;;;;18.46;29.54;65738.34;5092712;28;20130;-79
2023/03/27 08:13:37;;;;;;;5.43;2.28;;;;;;;18.33;28.71;65724.19;5091541;28;20522;-79
2023/03/27 08:16:10;;;;;;;;;;;;;;;18.13;29.72;65702.09;5091350;28;20047;-79
2023/03/27 08:18:36;;;;;;;14.82;2.58;;;;;;;18.06;29.76;65694.16;5083658;28;20357;-81
2023/03/27 08:21:07;;;;;;;4.87;2.20;;;;;;;18.05;29.41;65693.03;5059266;28;20427;-80
2023/03/27 08:23:34;;;;;;;16.85;2.53;;;;;;;18.22;29.61;65705.78;5085056;28;20051;-79
2023/03/27 08:26:16;;;;;;;6.28;2.15;;;;;;;18.09;29.78;65697.56;5086695;28;20504;-80
2023/03/27 08:28:56;;;;;;;3.53;1.83;;;;;;;18.04;29.72;65691.31;5073311;28;20422;-81
2023/03/27 08:31:26;;;;;;;6.30;2.10;;;;;;;17.95;29.38;65681.69;5094166;28;20122;-80
2023/03/27 08:33:57;;;;;;;6.22;1.73;;;;;;;18.10;28.99;65698.13;5093671;28;20044;-81
2023/03/27 08:36:26;;;;;;;5.85;2.00;;;;;;;18.07;28.51;65695.28;5077363;28;20032;-79
2023/03/27 08:38:54;;;;;;;6.68;2.33;;;;;;;18.18;28.90;65707.75;5094352;28;20423;-78
2023/03/27 08:41:54;;;;;;;12.68;2.05;;;;;;;18.25;28.55;65714.56;5085688;28;20044;-79
2023/03/27 08:44:30;;;;;;;6.88;1.98;;;;;;;18.51;28.07;65743.47;5072741;28;20499;-82
2023/03/27 08:47:30;;;;;;;5.05;1.75;;;;;;;18.44;27.75;65736.09;5076503;28;20074;-79
2023/03/27 08:50:11;;;;;;;4.32;2.30;;;;;;;18.77;28.27;65772.38;5077971;28;21409;-78
2023/03/27 08:53:31;;;;;;;12.98;2.10;;;;;;;18.70;27.20;65765.00;5091787;28;20040;-78
2023/03/27 08:56:00;;;;;;;3.13;1.70;;;;;;;18.82;27.19;65778.63;5107213;28;20045;-78
2023/03/27 08:58:34;;;;;;;6.75;2.15;;;;;;;18.79;26.82;65774.66;5079055;28;20821;-80
2023/03/27 09:01:29;;;;;;;4.35;2.03;;;;;;;18.77;26.96;65772.97;5093638;28;20036;-81
2023/03/27 09:04:11;;;;;;;5.30;2.03;;;;;;;18.95;26.79;65792.78;5076461;28;20125;-81
2023/03/27 09:06:56;;;;;;;4.25;1.70;;;;;;;19.22;27.32;65822.28;5076148;28;20097;-81
2023/03/27 09:09:36;;;;;;;4.38;1.90;;;;;;;19.39;26.65;65841.56;5075677;28;20082;-79
2023/03/27 09:12:28;;;;;;;4.50;2.13;;;;;;;19.57;25.80;65861.44;5076331;28;20035;-79
2023/03/27 09:14:57;;;;;;;;;;;;;;;19.49;25.98;65850.25;5058469;28;20552;-79
2023/03/27 09:17:33;;;;;;;6.28;1.70;;;;;;;19.43;26.73;65846.09;5075828;28;19920;-79
2023/03/27 09:20:19;;;;;;;3.92;2.20;;;;;;;19.60;25.50;65865.41;5106504;28;20051;-79
2023/03/27 09:23:08;;;;;;;3.10;1.90;;;;;;;19.69;25.70;65875.06;5071911;28;20067;-80
2023/03/27 09:25:59;;;;;;;6.22;2.30;;;;;;;19.52;26.59;65856.34;5107310;28;20040;-80
2023/03/27 09:28:54;;;;;;;14.20;2.47;;;;;;;19.68;25.92;65873.94;5064234;28;20097;-77
2023/03/27 09:31:33;;;;;;;6.07;2.70;;;;;;;19.78;25.76;65882.59;5060841;28;20499;-79
2023/03/27 09:34:10;;;;;;;3.92;1.80;;;;;;;19.99;26.19;65908.53;5060634;28;20074;-79
2023/03/27 09:36:37;;;;;;;5.78;1.90;;;;;;;20.11;25.90;65921.59;5075644;28;20105;-79
2023/03/27 09:39:14;;;;;;;8.38;1.88;;;;;;;20.18;25.01;65928.97;5076931;28;20059;-79
2023/03/27 09:42:05;;;;;;;3.78;2.10;;;;;;;20.43;24.76;65954.09;5093137;28;20051;-79
2023/03/27 09:44:41;;;;;;;7.43;1.95;;;;;;;20.55;24.41;65971.00;5092277;28;20134;-80
2023/03/27 09:47:31;;;;;;;7.35;1.80;;;;;;;20.72;24.33;65987.03;5076192;28;20044;-80
2023/03/27 09:50:27;;;;;;;10.15;2.10;;;;;;;20.95;23.96;66015.31;5092782;28;20044;-80
2023/03/27 09:53:24;;;;;;;6.82;2.17;;;;;;;21.28;24.81;66048.97;5076187;28;20169;-79
2023/03/27 09:56:15;;;;;;;6.97;2.10;;;;;;;21.74;23.95;66102.81;5087575;28;20106;-79
2023/03/27 09:58:47;;;;;;;6.38;2.63;;;;;;;21.94;24.26;66125.56;5074303;28;20411;-80
2023/03/27 10:01:33;;;;;;;5.72;2.38;;;;;;;22.19;23.57;66152.88;5059302;28;20087;-80
2023/03/27 10:04:18;;;;;;;8.25;2.40;;;;;;;21.82;24.06;66112.50;5093243;28;20053;-79
2023/03/27 10:06:58;;;;;;;6.05;2.88;;;;;;;21.57;24.59;66084.63;5092932;28;20094;-79
2023/03/27 10:09:36;;;;;;;8.40;2.22;;;;;;;21.38;24.31;66057.66;5110427;28;20044;-80
2023/03/27 10:12:08;;;;;;;14.02;1.90;;;;;;;21.06;24.27;66027.81;5097447;28;20056;-79
2023/03/27 10:14:46;;;;;;;9.63;2.10;;;;;;;21.01;23.91;66021.56;5094252;28;20503;-80
2023/03/27 10:17:30;;;;;;;7.60;2.17;;;;;;;21.43;24.66;66068.72;5076308;28;20074;-79
2023/03/27 10:20:15;;;;;;;6.37;1.83;;;;;;;21.74;24.69;66103.41;5076409;28;20048;-83
2023/03/27 10:22:50;;;;;;;6.78;2.40;;;;;;;21.41;24.79;66065.91;5093073;28;20036;-80
2023/03/27 10:25:29;;;;;;;6.63;1.83;;;;;;;21.24;26.82;66047.13;5074703;28;20039;-87
2023/03/27 10:28:22;;;;;;;12.35;2.10;;;;;;;21.09;24.69;66027.94;5073321;28;20139;-84
2023/03/27 10:31:25;;;;;;;10.50;2.25;;;;;;;20.54;24.92;65969.88;5061095;28;20074;-80
2023/03/27 10:34:05;;;;;;;4.80;2.22;;;;;;;20.38;25.40;65948.97;5071478;28;20043;-82
2023/03/27 10:36:53;;;;;;;5.85;2.17;;;;;;;20.44;26.40;65957.94;5104286;28;20055;-84
2023/03/27 10:39:26;;;;;;;8.18;1.98;;;;;;;20.17;25.27;65928.41;5108581;28;20039;-82
2023/03/27 10:42:16;;;;;;;8.57;1.80;;;;;;;19.85;25.73;65892.66;5091601;28;20499;-81
2023/03/27 10:44:48;;;;;;;4.63;2.30;;;;;;;19.87;26.03;65894.94;5105579;28;20048;-84
2023/03/27 10:47:18;;;;;;;17.50;2.20;;;;;;;19.75;25.99;65881.88;5092216;28;20884;-85
2023/03/27 10:49:48;;;;;;;8.60;1.83;;;;;;;19.49;26.50;65852.38;5094335;28;20403;-85
2023/03/27 10:52:31;;;;;;;4.72;2.40;;;;;;;19.45;26.20;65842.44;5061250;28;20059;-80
2023/03/27 10:55:43;;;;;;;8.77;2.00;;;;;;;19.07;27.08;65805.84;5075905;28;20036;-81
2023/03/27 10:58:22;;;;;;;2.80;1.98;;;;;;;18.87;27.19;65784.28;5047554;28;20047;-79
2023/03/27 11:00:57;;;;;;;9.88;2.10;;;;;;;18.77;27.63;65772.38;5071827;28;20040;-81
2023/03/27 11:03:42;;;;;;;5.30;1.83;;;;;;;18.09;28.59;65697.56;5071767;28;20093;-77
2023/03/27 11:06:14;;;;;;;16.73;2.50;;;;;;;18.06;29.11;65694.16;5038791;28;20049;-77
2023/03/27 11:09:16;;;;;;;5.85;2.65;;;;;;;18.01;29.93;65687.94;5071663;28;20051;-78
2023/03/27 11:12:06;;;;;;;5.07;2.55;;;;;;;17.66;29.63;65649.38;5057529;28;20048;-79
2023/03/27 11:14:55;;;;;;;6.47;2.17;;;;;;;17.76;29.90;65660.75;5072472;28;20090;-78
2023/03/27 11:17:30;;;;;;;5.93;2.10;;;;;;;17.84;29.65;65669.25;5039098;28;20044;-77
2023/03/27 11:20:32;;;;;;;4.72;1.90;;;;;;;17.66;29.41;65647.28;5076188;28;20049;-80
2023/03/27 11:23:45;;;;;;;11.13;2.67;;;;;;;17.48;29.92;65630.13;5071984;28;20070;-78
2023/03/27 11:26:34;;;;;;;6.00;2.50;;;;;;;17.19;30.50;65595.19;5089210;28;20057;-78
2023/03/27 11:29:12;;;;;;;10.02;2.30;;;;;;;17.24;30.27;65603.53;5088393;28;20165;-78
2023/03/27 11:31:53;;;;;;;11.13;2.20;;;;;;;17.15;30.71;65593.34;5040170;28;20040;-79
2023/03/27 11:35:09;;;;;;;3.40;2.28;;;;;;;17.11;30.51;65585.56;5069920;28;20044;-78
2023/03/27 11:38:00;;;;;;;6.45;2.03;;;;;;;17.14;30.68;65591.63;5069885;28;20053;-78
2023/03/27 11:40:57;;;;;;;6.50;2.38;;;;;;;17.09;30.74;65586.53;5055258;28;20044;-78
2023/03/27 11:43:24;;;;;;;5.75;2.28;;;;;;;17.07;30.69;65583.72;5069446;28;20159;-78
2023/03/27 11:45:54;;;;;;;16.60;3.00;;;;;;;17.17;31.02;65595.03;5054971;28;20123;-79
2023/03/27 11:49:04;;;;;;;12.05;2.67;;;;;;;17.35;30.67;65614.84;5071656;28;20048;-79
2023/03/27 11:51:40;;;;;;;9.13;2.95;;;;;;;17.38;30.58;65618.81;5055115;28;20051;-77
2023/03/27 11:54:21;;;;;;;13.73;3.25;;;;;;;17.33;31.09;65613.13;5071725;28;20118;-77
2023/03/27 11:56:54;;;;;;;13.75;3.13;;;;;;;17.49;30.94;65630.72;5055577;28;20411;-79
2023/03/27 12:00:05;;;;;;;5.43;2.47;;;;;;;17.66;31.05;65649.94;5075606;28;20411;-79
2023/03/27 12:03:05;;;;;;;6.25;2.83;;;;;;;17.54;30.53;65636.38;5070990;28;20048;-78
2023/03/27 12:06:00;;;;;;;6.40;2.50;;;;;;;17.50;30.83;65631.84;5055591;28;20085;-79
2023/03/27 12:08:56;;;;;;;6.57;2.20;;;;;;;17.40;31.10;65620.50;5090127;28;20043;-78
2023/03/27 12:11:25;;;;;;;6.82;2.70;;;;;;;17.39;31.07;65619.38;5074594;28;20040;-79
2023/03/27 12:14:20;;;;;;;10.38;2.53;;;;;;;17.46;31.26;65627.88;5072578;28;20087;-80